Terminal Aerodrome Forecast
Issued by NWS Newport/Morehead City, NC

Home | Current Version | Previous Version | Graphics & Text | Print | Product List | Glossary On
Versions: 1 2 3 4 5 6 7 8 9 10 11 12 13 14 15
000
FTUS42 KMHX 301741
TAFEWN
TAF
KEWN 301741Z 3018/0118 25010G16KT P6SM SCT060
     FM010300 20009KT P6SM VCSH BKN060
     FM010900 23005KT P6SM SCT060 BKN120=

USA.gov is the U.S. government's official web portal to all federal, state and local government web resources and services.